createdAt,value
2022-12-11T00:02:07.587Z,95378.94
2022-12-11T00:04:35.258Z,95385.31
2022-12-11T00:07:02.180Z,95391.09
2022-12-11T00:12:25.980Z,95388.09
2022-12-11T00:14:55.678Z,95390.78
2022-12-11T00:17:23.175Z,95395.72
2022-12-11T00:19:50.532Z,95386.88
2022-12-11T00:22:18.470Z,95392.78
2022-12-11T00:24:49.040Z,95385.38
2022-12-11T00:27:16.075Z,95392.06
2022-12-11T00:29:44.922Z,95390.09
2022-12-11T00:32:14.474Z,95389.59
2022-12-11T00:34:42.517Z,95380.13
2022-12-11T00:37:10.068Z,95377.38
2022-12-11T00:39:39.035Z,95387.16
2022-12-11T00:42:06.506Z,95398.66
2022-12-11T00:47:23.854Z,95385.97
2022-12-11T00:49:54.318Z,95388.47
2022-12-11T00:52:21.639Z,95383.16
2022-12-11T00:54:57.946Z,95384.94
2022-12-11T00:57:24.438Z,95384.69
2022-12-11T00:59:51.313Z,95384.16
2022-12-11T01:02:18.810Z,95386.34
2022-12-11T01:04:45.772Z,95399.56
2022-12-11T01:07:12.677Z,95399.50
2022-12-11T01:09:41.016Z,95399.19
2022-12-11T01:12:07.918Z,95387.88
2022-12-11T01:14:34.965Z,95391.72
2022-12-11T01:19:51.852Z,95388.31
2022-12-11T01:22:19.352Z,95396.47
2022-12-11T01:24:46.973Z,95402.34
2022-12-11T01:27:16.932Z,95399.47
2022-12-11T01:29:48.447Z,95403.19
2022-12-11T01:32:22.442Z,95421.66
2022-12-11T01:34:50.137Z,95429.38
2022-12-11T01:37:17.661Z,95422.16
2022-12-11T01:39:44.663Z,95418.13
2022-12-11T01:42:18.661Z,95421.84
2022-12-11T01:44:52.858Z,95411.81
2022-12-11T01:47:19.829Z,95413.19
2022-12-11T01:49:49.005Z,95427.03
2022-12-11T01:52:23.091Z,95421.53
2022-12-11T01:54:57.312Z,95408.50
2022-12-11T01:57:28.119Z,95417.06
2022-12-11T01:59:57.934Z,95413.59
2022-12-11T02:02:29.268Z,95404.81
2022-12-11T02:04:56.831Z,95407.16
2022-12-11T02:07:23.905Z,95416.34
2022-12-11T02:09:50.800Z,95409.78
2022-12-11T02:12:28.704Z,95409.28
2022-12-11T02:14:56.397Z,95419.97
2022-12-11T02:17:25.555Z,95409.09
2022-12-11T02:19:52.464Z,95407.59
2022-12-11T02:22:21.359Z,95421.19
2022-12-11T02:24:52.838Z,95421.47
2022-12-11T02:27:21.503Z,95428.09
2022-12-11T02:29:49.080Z,95430.94
2022-12-11T02:32:16.060Z,95431.03
2022-12-11T02:34:44.612Z,95422.84
2022-12-11T02:37:12.898Z,95425.09
2022-12-11T02:39:39.900Z,95415.75
2022-12-11T02:44:36.783Z,95416.56
2022-12-11T02:47:10.961Z,95428.75
2022-12-11T02:49:37.921Z,95419.06
2022-12-11T02:52:07.355Z,95418.81
2022-12-11T02:54:36.342Z,95423.72
2022-12-11T02:57:10.709Z,95423.63
2022-12-11T02:59:37.621Z,95427.16
2022-12-11T03:02:06.601Z,95431.09
2022-12-11T03:04:34.140Z,95432.66
2022-12-11T03:07:01.246Z,95434.91
2022-12-11T03:09:28.184Z,95438.88
2022-12-11T03:11:58.664Z,95438.41
2022-12-11T03:14:25.586Z,95437.50
2022-12-11T03:16:53.127Z,95437.56
2022-12-11T03:19:21.997Z,95439.03
2022-12-11T03:21:51.458Z,95427.34
2022-12-11T03:24:18.933Z,95429.47
2022-12-11T03:26:47.770Z,95421.09
2022-12-11T03:29:14.657Z,95424.94
2022-12-11T03:31:42.067Z,95424.53
2022-12-11T03:34:09.229Z,95421.53
2022-12-11T03:36:36.668Z,95425.25
2022-12-11T03:39:07.372Z,95426.53
2022-12-11T03:41:35.009Z,95427.13
2022-12-11T03:44:02.871Z,95425.41
2022-12-11T03:46:29.843Z,95430.13
2022-12-11T03:48:56.339Z,95437.06
2022-12-11T03:51:23.333Z,95422.25
2022-12-11T03:53:50.500Z,95430.59
2022-12-11T03:56:17.252Z,95423.25
2022-12-11T03:58:47.257Z,95432.16
2022-12-11T04:01:21.390Z,95431.47
2022-12-11T04:03:48.535Z,95431.44
2022-12-11T04:06:18.419Z,95427.59
2022-12-11T04:08:45.970Z,95438.50
2022-12-11T04:11:15.491Z,95433.78
2022-12-11T04:14:02.948Z,95438.56
2022-12-11T04:16:48.892Z,95441.06
2022-12-11T04:22:29.128Z,95425.72
2022-12-11T04:25:03.116Z,95430.84
2022-12-11T04:27:33.972Z,95420.03
2022-12-11T04:30:01.288Z,95431.47
2022-12-11T04:32:29.564Z,95427.22
2022-12-11T04:34:57.402Z,95424.41
2022-12-11T04:37:24.444Z,95416.13
2022-12-11T04:39:51.436Z,95419.38
2022-12-11T04:42:19.017Z,95418.34
2022-12-11T04:44:48.862Z,95414.72
2022-12-11T04:47:16.200Z,95422.41
2022-12-11T04:49:44.035Z,95408.47
2022-12-11T04:52:17.820Z,95411.34
2022-12-11T04:54:44.857Z,95414.41
2022-12-11T04:57:11.923Z,95418.66
2022-12-11T04:59:39.438Z,95414.00
2022-12-11T05:02:08.195Z,95409.91
2022-12-11T05:04:35.191Z,95411.84
2022-12-11T05:07:03.840Z,95419.63
2022-12-11T05:09:30.809Z,95408.13
2022-12-11T05:11:57.910Z,95405.88
2022-12-11T05:14:25.322Z,95408.09
2022-12-11T05:16:52.017Z,95395.88
2022-12-11T05:19:22.944Z,95405.16
2022-12-11T05:21:55.493Z,95405.06
2022-12-11T05:24:25.468Z,95401.81
2022-12-11T05:26:53.080Z,95401.81
2022-12-11T05:29:25.161Z,95401.41
2022-12-11T05:31:54.140Z,95396.97
2022-12-11T05:34:24.477Z,95405.91
2022-12-11T05:36:52.937Z,95402.94
2022-12-11T05:39:20.570Z,95401.81
2022-12-11T05:44:38.041Z,95406.59
2022-12-11T05:47:05.566Z,95407.06
2022-12-11T05:49:32.640Z,95401.63
2022-12-11T05:52:02.686Z,95405.88
2022-12-11T05:54:30.364Z,95408.50
2022-12-11T05:56:59.909Z,95408.88
2022-12-11T05:59:28.268Z,95403.69
2022-12-11T06:01:55.823Z,95396.19
2022-12-11T06:04:25.452Z,95392.97
2022-12-11T06:06:52.913Z,95384.97
2022-12-11T06:09:22.862Z,95386.97
2022-12-11T06:11:51.125Z,95387.91
2022-12-11T06:14:18.056Z,95381.34
2022-12-11T06:16:45.183Z,95373.63
2022-12-11T06:19:12.878Z,95366.31
2022-12-11T06:21:41.775Z,95370.38
2022-12-11T06:24:10.999Z,95373.19
2022-12-11T06:26:37.972Z,95380.63
2022-12-11T06:29:09.007Z,95379.34
2022-12-11T06:31:39.480Z,95387.09
2022-12-11T06:34:09.197Z,95388.81
2022-12-11T06:36:41.107Z,95388.13
2022-12-11T06:39:07.893Z,95391.38
2022-12-11T06:41:37.919Z,95392.66
2022-12-11T06:44:07.151Z,95396.31
2022-12-11T06:46:34.627Z,95385.97
2022-12-11T06:49:02.180Z,95389.19
2022-12-11T06:51:34.922Z,95387.22
2022-12-11T06:54:04.095Z,95373.06
2022-12-11T06:56:31.606Z,95383.47
2022-12-11T06:59:02.827Z,95386.19
2022-12-11T07:01:35.183Z,95377.31
2022-12-11T07:04:04.805Z,95375.31
2022-12-11T07:06:31.792Z,95381.63
2022-12-11T07:08:59.396Z,95396.53
2022-12-11T07:11:26.317Z,95387.41
2022-12-11T07:13:53.235Z,95385.16
2022-12-11T07:16:24.770Z,95380.97
2022-12-11T07:18:51.848Z,95388.53
2022-12-11T07:21:25.684Z,95392.56
2022-12-11T07:23:52.958Z,95386.81
2022-12-11T07:26:21.090Z,95389.84
2022-12-11T07:28:50.450Z,95393.78
2022-12-11T07:31:18.362Z,95395.47
2022-12-11T07:33:45.254Z,95403.63
2022-12-11T07:36:13.389Z,95391.59
2022-12-11T07:38:40.816Z,95409.41
2022-12-11T07:41:07.866Z,95417.38
2022-12-11T07:43:37.284Z,95400.59
2022-12-11T07:46:05.760Z,95402.91
2022-12-11T07:48:33.057Z,95405.66
2022-12-11T07:51:00.081Z,95409.16
2022-12-11T07:53:26.892Z,95410.97
2022-12-11T07:56:04.129Z,95397.44
2022-12-11T07:58:31.599Z,95393.09
2022-12-11T08:00:59.194Z,95392.22
2022-12-11T08:03:27.172Z,95390.88
2022-12-11T08:08:39.058Z,95389.19
2022-12-11T08:11:06.904Z,95383.50
2022-12-11T08:13:33.738Z,95386.00
2022-12-11T08:16:01.117Z,95386.16
2022-12-11T08:18:29.529Z,95384.66
2022-12-11T08:20:58.028Z,95385.28
2022-12-11T08:23:26.536Z,95392.00
2022-12-11T08:25:54.196Z,95385.97
2022-12-11T08:28:21.898Z,95385.25
2022-12-11T08:30:48.696Z,95391.31
2022-12-11T08:33:17.728Z,95384.09
2022-12-11T08:35:44.722Z,95382.47
2022-12-11T08:38:11.680Z,95375.72
2022-12-11T08:40:38.217Z,95372.41
2022-12-11T08:43:12.805Z,95387.47
2022-12-11T08:45:40.163Z,95375.88
2022-12-11T08:48:07.213Z,95381.63
2022-12-11T08:50:34.772Z,95374.09
2022-12-11T08:55:39.893Z,95363.97
2022-12-11T08:58:15.983Z,95361.81
2022-12-11T09:00:45.407Z,95360.06
2022-12-11T09:03:14.337Z,95358.81
2022-12-11T09:05:45.067Z,95368.09
2022-12-11T09:08:12.930Z,95363.16
2022-12-11T09:10:44.976Z,95351.94
2022-12-11T09:13:42.695Z,95358.22
2022-12-11T09:16:22.111Z,95366.41
2022-12-11T09:18:49.368Z,95377.19
2022-12-11T09:21:19.983Z,95360.59
2022-12-11T09:23:55.220Z,95354.28
2022-12-11T09:29:28.205Z,95346.31
2022-12-11T09:31:57.828Z,95362.31
2022-12-11T09:34:29.133Z,95361.44
2022-12-11T09:37:00.470Z,95353.81
2022-12-11T09:39:29.361Z,95357.88
2022-12-11T09:45:14.646Z,95349.69
2022-12-11T09:47:44.091Z,95351.06
2022-12-11T09:52:58.465Z,95356.06
2022-12-11T09:55:26.251Z,95360.56
2022-12-11T09:57:54.769Z,95364.53
2022-12-11T10:18:35.244Z,95378.44
2022-12-11T11:25:17.994Z,95329.00
2022-12-11T12:08:46.438Z,95301.53
2022-12-11T12:11:13.918Z,95305.53
2022-12-11T12:13:49.405Z,95295.72
2022-12-11T12:16:50.590Z,95287.66
2022-12-11T12:25:23.843Z,95288.69
2022-12-11T12:27:57.327Z,95292.84
2022-12-11T12:36:24.673Z,95294.66
2022-12-11T12:38:52.133Z,95294.31
2022-12-11T12:41:23.401Z,95297.63
2022-12-11T12:43:50.675Z,95298.41
2022-12-11T12:46:18.266Z,95297.25
2022-12-11T12:48:47.413Z,95296.91
2022-12-11T12:51:17.118Z,95302.09
2022-12-11T12:56:40.471Z,95287.28
2022-12-11T12:59:11.674Z,95285.03
2022-12-11T13:01:45.536Z,95290.22
2022-12-11T13:04:26.394Z,95286.53
2022-12-11T13:07:01.292Z,95282.06
2022-12-11T13:09:35.855Z,95282.03
2022-12-11T13:14:54.428Z,95281.22
2022-12-11T13:17:21.384Z,95272.38
2022-12-11T13:19:53.062Z,95275.81
2022-12-11T13:22:30.789Z,95272.06
2022-12-11T13:25:00.669Z,95269.88
2022-12-11T13:27:28.159Z,95271.13
2022-12-11T13:29:55.945Z,95273.44
2022-12-11T13:32:26.149Z,95270.34
2022-12-11T13:34:53.015Z,95268.53
2022-12-11T13:37:21.914Z,95265.06
2022-12-11T13:39:51.532Z,95273.19
2022-12-11T13:45:16.707Z,95264.91
2022-12-11T13:47:43.756Z,95260.97
2022-12-11T13:50:12.081Z,95265.94
2022-12-11T13:52:39.851Z,95264.94
2022-12-11T13:55:09.188Z,95262.25
2022-12-11T13:57:38.003Z,95266.47
2022-12-11T14:16:20.219Z,95271.72
2022-12-11T14:18:53.114Z,95271.72
2022-12-11T14:21:35.409Z,95271.69
2022-12-11T14:24:31.895Z,95274.31
2022-12-11T14:32:45.060Z,95274.66
2022-12-11T15:05:49.755Z,95275.28
2022-12-11T15:10:58.025Z,95277.91
2022-12-11T15:13:28.051Z,95273.06
2022-12-11T15:16:00.008Z,95279.72
2022-12-11T15:18:26.682Z,95283.47
2022-12-11T15:20:53.415Z,95286.78
2022-12-11T15:23:24.151Z,95277.09
2022-12-11T15:25:53.297Z,95285.66
2022-12-11T15:28:21.014Z,95290.19
2022-12-11T15:30:47.842Z,95293.72
2022-12-11T15:33:15.588Z,95294.88
2022-12-11T15:35:48.347Z,95284.16
2022-12-11T15:38:19.712Z,95280.97
2022-12-11T15:40:55.539Z,95288.22
2022-12-11T15:43:31.639Z,95302.25
2022-12-11T15:46:05.124Z,95297.66
2022-12-11T15:48:37.304Z,95299.75
2022-12-11T15:51:08.725Z,95306.44
2022-12-11T15:53:35.834Z,95298.06
2022-12-11T15:56:04.665Z,95301.34
2022-12-11T16:01:46.721Z,95303.91
2022-12-11T16:04:14.410Z,95301.63
2022-12-11T16:06:41.292Z,95304.13
2022-12-11T16:09:11.525Z,95306.84
2022-12-11T16:11:44.814Z,95297.66
2022-12-11T16:14:12.099Z,95311.72
2022-12-11T16:22:50.113Z,95308.56
2022-12-11T16:31:01.152Z,95319.91
2022-12-11T16:33:32.240Z,95318.94
2022-12-11T16:35:59.887Z,95320.13
2022-12-11T16:38:28.712Z,95318.19
2022-12-11T16:40:56.384Z,95318.91
2022-12-11T16:43:27.478Z,95315.31
2022-12-11T16:45:57.660Z,95305.13
2022-12-11T16:48:25.922Z,95307.00
2022-12-11T16:50:57.737Z,95308.03
2022-12-11T16:53:31.546Z,95303.69
2022-12-11T16:56:02.540Z,95303.94
2022-12-11T17:01:32.315Z,95310.41
2022-12-11T17:03:59.271Z,95307.22
2022-12-11T17:06:26.157Z,95318.66
2022-12-11T17:08:58.136Z,95317.22
2022-12-11T17:11:26.303Z,95319.53
2022-12-11T17:17:10.439Z,95320.00
2022-12-11T17:25:40.910Z,95326.63
2022-12-11T17:28:08.026Z,95322.03
2022-12-11T17:33:25.291Z,95327.06
2022-12-11T17:35:52.219Z,95337.13
2022-12-11T17:38:19.920Z,95323.47
2022-12-11T17:40:49.730Z,95328.13
2022-12-11T17:43:21.303Z,95323.53
2022-12-11T17:45:50.146Z,95315.75
2022-12-11T17:48:20.365Z,95321.41
2022-12-11T17:50:53.492Z,95328.53
2022-12-11T17:56:05.224Z,95314.72
2022-12-11T17:58:35.522Z,95319.50
2022-12-11T18:01:07.906Z,95318.34
2022-12-11T18:03:40.214Z,95316.84
2022-12-11T18:09:29.986Z,95318.06
2022-12-11T18:12:02.546Z,95320.75
2022-12-11T18:14:29.378Z,95323.91
2022-12-11T18:16:55.874Z,95320.16
2022-12-11T18:19:23.336Z,95314.22
2022-12-11T18:21:52.477Z,95325.66
2022-12-11T18:24:19.761Z,95320.81
2022-12-11T18:26:49.974Z,95322.34
2022-12-11T18:29:16.649Z,95326.09
2022-12-11T18:31:43.772Z,95324.78
2022-12-11T18:34:14.261Z,95326.78
2022-12-11T18:39:27.191Z,95332.72
2022-12-11T18:42:30.687Z,95328.91
2022-12-11T18:44:42.208Z,95327.75
2022-12-11T18:47:17.834Z,95324.09
2022-12-11T18:49:46.903Z,95328.50
2022-12-11T18:52:13.808Z,95330.56
2022-12-11T18:54:40.887Z,95339.38
2022-12-11T18:57:07.874Z,95334.31
2022-12-11T18:59:34.922Z,95332.63
2022-12-11T19:14:23.476Z,95336.47
2022-12-11T19:17:03.485Z,95341.78
2022-12-11T19:41:33.403Z,95343.97
2022-12-11T19:50:33.400Z,95336.94
2022-12-11T19:53:01.204Z,95334.84
2022-12-11T19:55:34.169Z,95334.19
2022-12-11T19:58:05.529Z,95342.34
2022-12-11T20:00:32.714Z,95345.72
2022-12-11T20:05:56.719Z,95351.78
2022-12-11T20:08:46.958Z,95350.94
2022-12-11T20:11:18.242Z,95354.72
2022-12-11T20:14:17.340Z,95354.94
2022-12-11T20:19:37.047Z,95361.34
2022-12-11T20:22:04.604Z,95356.19
2022-12-11T20:30:50.122Z,95355.44
2022-12-11T20:36:29.896Z,95352.13
2022-12-11T20:38:58.303Z,95353.09
2022-12-11T20:41:28.937Z,95344.84
2022-12-11T20:43:58.606Z,95342.50
2022-12-11T20:46:27.649Z,95346.66
2022-12-11T20:48:57.370Z,95342.00
2022-12-11T20:51:26.254Z,95346.19
2022-12-11T20:53:53.552Z,95342.53
2022-12-11T20:56:20.968Z,95340.09
2022-12-11T20:58:49.670Z,95342.47
2022-12-11T21:01:16.245Z,95337.88
2022-12-11T21:03:43.217Z,95337.25
2022-12-11T21:06:12.961Z,95329.16
2022-12-11T21:08:45.870Z,95330.84
2022-12-11T21:14:09.363Z,95327.25
2022-12-11T21:16:39.192Z,95329.13
2022-12-11T21:19:15.215Z,95327.66
2022-12-11T21:25:02.446Z,95337.63
2022-12-11T21:27:31.654Z,95333.06
2022-12-11T21:30:02.208Z,95333.81
2022-12-11T21:32:34.248Z,95338.66
2022-12-11T21:35:01.600Z,95335.72
2022-12-11T21:37:29.171Z,95329.75
2022-12-11T21:39:57.645Z,95341.41
2022-12-11T21:42:24.717Z,95333.56
2022-12-11T21:47:38.832Z,95333.13
2022-12-11T21:50:07.089Z,95336.06
2022-12-11T21:52:35.691Z,95337.00
2022-12-11T21:55:04.954Z,95336.25
2022-12-11T21:57:32.582Z,95343.41
2022-12-11T22:03:15.242Z,95344.38
2022-12-11T22:28:11.181Z,95355.84
2022-12-11T22:30:38.420Z,95345.81
2022-12-11T22:33:05.071Z,95349.88
2022-12-11T22:35:31.704Z,95350.41
2022-12-11T22:38:02.526Z,95350.56
2022-12-11T22:40:38.471Z,95355.06
2022-12-11T22:43:14.873Z,95360.66
2022-12-11T22:45:45.812Z,95357.13
2022-12-11T22:48:13.381Z,95356.00
2022-12-11T22:50:41.826Z,95347.84
2022-12-11T22:59:23.197Z,95351.78
2022-12-11T23:01:50.084Z,95354.34
2022-12-11T23:04:19.808Z,95350.28
2022-12-11T23:06:46.664Z,95355.84
2022-12-11T23:09:17.711Z,95349.94
2022-12-11T23:26:41.469Z,95356.88
2022-12-11T23:29:08.651Z,95363.25
2022-12-11T23:31:35.681Z,95361.03
2022-12-11T23:34:04.909Z,95355.81
2022-12-11T23:36:39.130Z,95362.16
2022-12-11T23:39:09.030Z,95369.09
2022-12-11T23:44:38.761Z,95368.34
2022-12-11T23:50:14.650Z,95365.38
2022-12-11T23:55:26.866Z,95360.84
2022-12-11T23:57:54.504Z,95367.19
